createdAt,value
2022-12-15T00:00:39.567Z,6.13
2022-12-15T00:03:44.880Z,5.13
2022-12-15T00:06:56.658Z,5.47
2022-12-15T00:10:08.953Z,5.82
2022-12-15T00:13:21.537Z,6.00
2022-12-15T00:16:33.561Z,5.60
2022-12-15T00:19:38.749Z,5.35
2022-12-15T00:22:50.588Z,5.28
2022-12-15T00:26:02.589Z,5.80
2022-12-15T00:29:14.664Z,5.80
2022-12-15T00:32:26.635Z,5.82
2022-12-15T00:35:38.540Z,6.55
2022-12-15T00:38:48.598Z,5.60
2022-12-15T00:41:35.333Z,5.63
2022-12-15T00:44:29.537Z,6.07
2022-12-15T00:47:16.728Z,5.40
2022-12-15T00:50:29.637Z,5.50
2022-12-15T00:53:41.542Z,5.43
2022-12-15T00:56:53.634Z,5.72
2022-12-15T00:59:58.968Z,5.22
2022-12-15T01:03:11.697Z,5.20
2022-12-15T01:06:23.202Z,5.32
2022-12-15T01:09:37.563Z,5.28
2022-12-15T01:12:49.709Z,5.07
2022-12-15T01:16:02.644Z,5.25
2022-12-15T01:19:08.248Z,5.18
2022-12-15T01:22:01.555Z,6.07
2022-12-15T01:24:48.289Z,5.70
2022-12-15T01:27:41.594Z,5.18
2022-12-15T01:30:34.623Z,4.78
2022-12-15T01:33:28.842Z,5.00
2022-12-15T01:36:16.104Z,5.25
2022-12-15T01:39:09.623Z,5.65
2022-12-15T01:42:02.582Z,5.32
2022-12-15T01:44:57.632Z,5.10
2022-12-15T01:48:04.635Z,5.43
2022-12-15T01:51:06.325Z,4.53
2022-12-15T01:54:14.574Z,5.30
2022-12-15T01:57:10.637Z,4.90
2022-12-15T02:00:06.581Z,5.20
2022-12-15T02:02:54.830Z,5.65
2022-12-15T02:05:48.631Z,5.13
2022-12-15T02:08:36.338Z,5.57
2022-12-15T02:11:29.633Z,5.78
2022-12-15T02:14:25.645Z,5.63
2022-12-15T02:17:18.782Z,4.95
2022-12-15T02:20:11.671Z,5.15
2022-12-15T02:23:16.390Z,5.07
2022-12-15T02:26:19.312Z,5.50
2022-12-15T02:29:13.305Z,4.80
2022-12-15T02:32:12.600Z,4.78
2022-12-15T02:35:03.524Z,5.13
2022-12-15T02:37:56.732Z,5.45
2022-12-15T02:40:43.568Z,4.53
2022-12-15T02:43:39.671Z,4.93
2022-12-15T02:46:46.677Z,4.82
2022-12-15T02:49:39.699Z,5.70
2022-12-15T02:52:36.252Z,5.20
2022-12-15T02:55:31.675Z,4.70
2022-12-15T02:58:27.495Z,4.63
2022-12-15T03:01:27.741Z,4.78
2022-12-15T03:04:21.663Z,4.82
2022-12-15T03:07:15.793Z,4.40
2022-12-15T03:10:03.290Z,5.00
2022-12-15T03:12:59.778Z,4.43
2022-12-15T03:15:55.061Z,4.60
2022-12-15T03:18:48.620Z,5.22
2022-12-15T03:21:35.323Z,5.28
2022-12-15T03:24:28.625Z,4.80
2022-12-15T03:27:21.613Z,4.40
2022-12-15T03:30:08.776Z,4.90
2022-12-15T03:33:02.734Z,4.53
2022-12-15T03:35:51.145Z,5.25
2022-12-15T03:38:44.688Z,4.63
2022-12-15T03:41:31.425Z,4.55
2022-12-15T03:44:24.651Z,4.57
2022-12-15T03:47:11.431Z,4.63
2022-12-15T03:50:11.678Z,4.72
2022-12-15T03:53:08.660Z,4.88
2022-12-15T03:55:55.919Z,4.53
2022-12-15T03:58:49.640Z,4.80
2022-12-15T04:01:43.800Z,4.35
2022-12-15T04:04:30.576Z,4.93
2022-12-15T04:07:23.717Z,4.80
2022-12-15T04:10:18.246Z,4.45
2022-12-15T04:13:12.692Z,4.30
2022-12-15T04:16:07.849Z,4.90
2022-12-15T04:19:21.746Z,4.90
2022-12-15T04:22:09.974Z,3.70
2022-12-15T04:25:22.752Z,4.82
2022-12-15T04:28:35.648Z,4.53
2022-12-15T04:31:43.415Z,4.45
2022-12-15T04:34:55.725Z,4.18
2022-12-15T04:38:00.838Z,4.32
2022-12-15T04:41:12.919Z,4.55
2022-12-15T04:44:18.573Z,4.45
2022-12-15T04:47:30.674Z,4.43
2022-12-15T04:50:42.746Z,4.05
2022-12-15T04:53:54.666Z,4.25
2022-12-15T04:57:06.663Z,4.47
2022-12-15T05:00:11.989Z,3.80
2022-12-15T05:03:29.829Z,4.35
2022-12-15T05:06:35.283Z,4.15
2022-12-15T05:09:47.707Z,4.00
2022-12-15T05:12:52.845Z,4.20
2022-12-15T05:16:10.813Z,4.45
2022-12-15T05:19:22.712Z,4.20
2022-12-15T05:22:34.680Z,4.03
2022-12-15T05:25:46.768Z,4.57
2022-12-15T05:28:52.379Z,4.43
2022-12-15T05:32:01.767Z,4.10
2022-12-15T05:34:48.498Z,4.00
2022-12-15T05:37:41.690Z,3.90
2022-12-15T05:40:28.590Z,3.85
2022-12-15T05:43:27.004Z,4.45
2022-12-15T05:46:22.307Z,4.50
2022-12-15T05:49:22.862Z,4.45
2022-12-15T05:52:22.725Z,4.20
2022-12-15T05:55:09.695Z,3.80
2022-12-15T05:58:02.730Z,3.80
2022-12-15T06:00:55.785Z,3.45
2022-12-15T06:03:49.739Z,3.45
2022-12-15T06:06:36.518Z,3.53
2022-12-15T06:09:29.804Z,3.50
2022-12-15T06:12:22.716Z,3.70
2022-12-15T06:15:16.783Z,3.72
2022-12-15T06:18:03.517Z,3.42
2022-12-15T06:20:56.771Z,3.08
2022-12-15T06:23:43.925Z,3.10
2022-12-15T06:26:38.732Z,3.03
2022-12-15T06:29:31.750Z,3.05
2022-12-15T06:32:24.737Z,3.22
2022-12-15T06:35:18.542Z,3.15
2022-12-15T06:38:11.775Z,3.28
2022-12-15T06:41:07.679Z,3.35
2022-12-15T06:44:03.750Z,3.20
2022-12-15T06:46:56.877Z,3.75
2022-12-15T06:49:56.738Z,3.50
2022-12-15T06:52:56.799Z,4.15
2022-12-15T06:55:44.049Z,3.03
2022-12-15T06:58:37.780Z,3.22
2022-12-15T07:01:32.040Z,4.03
2022-12-15T07:04:25.785Z,4.30
2022-12-15T07:07:12.614Z,3.13
2022-12-15T07:10:06.542Z,3.70
2022-12-15T07:13:02.815Z,4.38
2022-12-15T07:15:53.793Z,4.07
2022-12-15T07:18:47.803Z,4.60
2022-12-15T07:21:34.614Z,3.58
2022-12-15T07:24:27.799Z,3.22
2022-12-15T07:27:20.942Z,4.70
2022-12-15T07:30:08.013Z,3.67
2022-12-15T07:33:00.760Z,3.65
2022-12-15T07:36:01.241Z,3.40
2022-12-15T07:38:54.808Z,3.22
2022-12-15T07:41:41.620Z,3.25
2022-12-15T07:44:35.806Z,4.40
2022-12-15T07:47:22.510Z,3.55
2022-12-15T07:50:25.022Z,3.80
2022-12-15T07:53:17.867Z,4.00
2022-12-15T07:56:12.915Z,4.00
2022-12-15T07:58:59.829Z,4.40
2022-12-15T08:01:53.029Z,3.47
2022-12-15T08:04:46.884Z,3.65
2022-12-15T08:07:39.910Z,3.90
2022-12-15T08:10:26.754Z,3.90
2022-12-15T08:13:52.413Z,4.22
2022-12-15T08:16:34.924Z,3.63
2022-12-15T08:19:21.773Z,3.80
2022-12-15T08:22:14.794Z,6.88
2022-12-15T08:25:01.601Z,4.20
2022-12-15T08:27:56.805Z,3.63
2022-12-15T08:30:50.831Z,3.90
2022-12-15T08:33:44.825Z,3.95
2022-12-15T08:36:32.135Z,4.10
2022-12-15T08:39:23.841Z,4.20
2022-12-15T08:42:09.137Z,4.25
2022-12-15T08:45:00.790Z,3.92
2022-12-15T08:47:45.758Z,3.33
2022-12-15T08:50:43.866Z,5.00
2022-12-15T08:53:41.243Z,3.50
2022-12-15T08:56:33.814Z,3.40
2022-12-15T08:59:25.817Z,3.47
2022-12-15T09:02:12.291Z,3.50
2022-12-15T09:05:03.865Z,3.72
2022-12-15T09:07:48.849Z,4.15
2022-12-15T09:10:46.134Z,3.97
2022-12-15T09:13:38.267Z,3.30
2022-12-15T09:16:29.916Z,4.13
2022-12-15T09:19:21.877Z,4.18
2022-12-15T09:22:14.889Z,3.85
2022-12-15T09:25:00.009Z,4.30
2022-12-15T09:27:51.826Z,3.78
2022-12-15T09:30:37.971Z,4.07
2022-12-15T09:33:30.269Z,4.00
2022-12-15T09:36:21.830Z,3.70
2022-12-15T09:39:13.923Z,3.50
2022-12-15T09:42:05.851Z,4.88
2022-12-15T09:44:56.780Z,4.03
2022-12-15T09:47:51.874Z,4.18
2022-12-15T09:50:45.292Z,5.10
2022-12-15T09:56:50.280Z,4.78
2022-12-15T10:00:03.849Z,4.40
2022-12-15T10:02:58.035Z,3.53
2022-12-15T10:09:06.834Z,5.97
2022-12-15T10:12:03.382Z,5.15
2022-12-15T10:14:54.843Z,4.40
2022-12-15T10:17:39.750Z,5.32
2022-12-15T10:20:35.854Z,4.53
2022-12-15T10:23:21.077Z,4.72
2022-12-15T10:26:32.860Z,3.90
2022-12-15T10:29:43.975Z,5.40
2022-12-15T10:32:28.986Z,5.15
2022-12-15T10:35:24.886Z,5.25
2022-12-15T10:38:21.715Z,4.82
2022-12-15T10:41:16.985Z,5.50
2022-12-15T10:44:02.839Z,4.93
2022-12-15T10:46:59.911Z,5.18
2022-12-15T10:49:58.875Z,4.60
2022-12-15T10:52:50.246Z,4.45
2022-12-15T10:55:42.631Z,4.72
2022-12-15T10:58:34.968Z,5.72
2022-12-15T11:01:24.259Z,5.72
2022-12-15T11:57:59.159Z,3.88
2022-12-15T12:00:57.397Z,4.35
2022-12-15T12:03:55.223Z,4.78
2022-12-15T12:06:55.167Z,4.50
2022-12-15T12:09:46.850Z,3.65
2022-12-15T12:12:47.294Z,4.60
2022-12-15T13:22:14.334Z,4.35
2022-12-15T13:25:02.128Z,4.05
2022-12-15T13:27:58.383Z,4.50
2022-12-15T13:31:10.435Z,6.05
2022-12-15T13:34:08.340Z,5.43
2022-12-15T13:36:56.833Z,4.32
2022-12-15T13:40:01.285Z,4.22
2022-12-15T13:43:09.438Z,4.70
2022-12-15T13:46:05.655Z,4.68
2022-12-15T13:49:22.343Z,5.40
2022-12-15T13:52:20.379Z,4.45
2022-12-15T14:27:50.700Z,4.13
2022-12-15T14:54:40.700Z,5.07
2022-12-15T15:01:57.943Z,6.38
2022-12-15T15:05:08.702Z,4.68
2022-12-15T15:08:03.518Z,6.22
2022-12-15T15:10:54.185Z,4.50
2022-12-15T15:13:47.515Z,4.72
2022-12-15T15:16:40.214Z,4.93
2022-12-15T15:19:39.060Z,4.50
2022-12-15T15:22:42.872Z,5.88
2022-12-15T15:25:44.627Z,4.57
2022-12-15T15:28:44.044Z,4.75
2022-12-15T15:31:43.740Z,6.07
2022-12-15T15:34:30.777Z,5.38
2022-12-15T15:37:31.603Z,4.97
2022-12-15T15:40:19.866Z,5.75
2022-12-15T15:43:20.603Z,5.25
2022-12-15T15:46:20.864Z,5.25
2022-12-15T15:49:13.486Z,4.57
2022-12-15T15:52:07.546Z,4.70
2022-12-15T15:55:01.701Z,5.10
2022-12-15T15:57:55.611Z,5.57
2022-12-15T16:01:04.812Z,4.88
2022-12-15T16:04:01.687Z,6.93
2022-12-15T16:06:56.604Z,5.22
2022-12-15T16:09:43.491Z,5.55
2022-12-15T16:12:48.625Z,4.68
2022-12-15T16:15:36.574Z,7.18
2022-12-15T16:18:30.020Z,4.70
2022-12-15T16:21:20.975Z,5.22
2022-12-15T16:24:24.611Z,6.78
2022-12-15T16:27:13.461Z,5.10
2022-12-15T16:30:06.594Z,6.13
2022-12-15T16:33:01.999Z,6.82
2022-12-15T16:35:56.676Z,5.75
2022-12-15T16:38:51.593Z,5.30
2022-12-15T16:41:44.600Z,6.35
2022-12-15T16:44:37.649Z,5.25
2022-12-15T16:47:30.614Z,5.78
2022-12-15T16:50:27.682Z,5.80
2022-12-15T16:53:23.778Z,5.00
2022-12-15T16:56:22.474Z,5.15
2022-12-15T16:59:33.034Z,4.95
2022-12-15T17:02:35.878Z,4.38
2022-12-15T17:05:26.465Z,5.70
2022-12-15T17:08:32.015Z,6.97
2022-12-15T17:11:24.847Z,5.15
2022-12-15T17:14:18.703Z,4.38
2022-12-15T17:17:14.635Z,5.03
2022-12-15T17:23:25.674Z,5.22
2022-12-15T17:26:30.964Z,7.72
2022-12-15T17:29:29.643Z,5.43
2022-12-15T17:32:16.478Z,6.93
2022-12-15T17:35:09.742Z,8.15
2022-12-15T17:37:56.744Z,8.15
2022-12-15T17:40:50.724Z,16.50
2022-12-15T17:43:38.283Z,16.67
2022-12-15T17:46:31.724Z,15.20
2022-12-15T17:49:19.658Z,15.88
2022-12-15T17:52:33.621Z,13.98
2022-12-15T17:55:35.280Z,8.38
2022-12-15T17:58:31.684Z,13.02
2022-12-15T18:01:31.748Z,10.85
2022-12-15T18:04:18.683Z,10.23
2022-12-15T18:07:12.696Z,11.52
2022-12-15T18:09:59.676Z,13.43
2022-12-15T18:12:52.675Z,11.73
2022-12-15T18:15:39.528Z,8.38
2022-12-15T18:18:32.642Z,12.50
2022-12-15T18:21:25.691Z,12.85
2022-12-15T18:24:15.512Z,9.98
2022-12-15T18:27:08.637Z,12.32
2022-12-15T18:30:02.651Z,10.70
2022-12-15T18:32:51.721Z,8.55
2022-12-15T18:35:47.697Z,11.07
2022-12-15T18:38:40.706Z,8.70
2022-12-15T18:41:27.867Z,10.32
2022-12-15T18:44:29.721Z,9.45
2022-12-15T18:47:25.716Z,8.57
2022-12-15T18:50:24.759Z,8.32
2022-12-15T18:53:28.902Z,9.55
2022-12-15T18:56:19.479Z,9.63
2022-12-15T18:59:21.700Z,8.90
2022-12-15T19:02:25.599Z,9.43
2022-12-15T19:05:35.714Z,8.48
2022-12-15T19:08:30.724Z,7.68
2022-12-15T19:11:38.915Z,8.27
2022-12-15T19:14:47.747Z,7.93
2022-12-15T19:17:53.202Z,8.50
2022-12-15T19:21:04.915Z,9.57
2022-12-15T19:23:51.752Z,10.07
2022-12-15T19:26:46.730Z,8.95
2022-12-15T19:29:33.624Z,7.60
2022-12-15T19:32:27.893Z,9.10
2022-12-15T19:35:15.147Z,8.68
2022-12-15T19:38:10.747Z,7.28
2022-12-15T19:41:06.766Z,7.85
2022-12-15T19:43:53.579Z,9.52
2022-12-15T19:46:48.753Z,7.35
2022-12-15T19:49:35.642Z,7.15
2022-12-15T19:52:29.064Z,6.47
2022-12-15T19:55:18.131Z,9.52
2022-12-15T19:58:34.749Z,9.65
2022-12-15T20:01:34.870Z,7.63
2022-12-15T20:04:28.741Z,7.85
2022-12-15T20:07:33.687Z,8.40
2022-12-15T20:10:32.582Z,9.55
2022-12-15T20:13:27.784Z,8.77
2022-12-15T20:16:17.840Z,10.23
2022-12-15T20:19:11.713Z,8.73
2022-12-15T20:21:58.523Z,9.93
2022-12-15T20:24:53.756Z,8.70
2022-12-15T20:27:43.694Z,7.78
2022-12-15T20:30:41.753Z,7.65
2022-12-15T20:33:28.917Z,9.07
2022-12-15T20:36:26.904Z,8.25
2022-12-15T20:39:26.802Z,7.75
2022-12-15T20:42:21.743Z,7.68
2022-12-15T20:45:18.969Z,9.50
2022-12-15T20:48:12.799Z,8.13
2022-12-15T20:51:04.245Z,7.53
2022-12-15T20:54:01.837Z,7.93
2022-12-15T20:56:55.724Z,7.90
2022-12-15T20:59:48.776Z,7.68
2022-12-15T21:02:43.415Z,8.10
2022-12-15T21:05:37.806Z,8.93
2022-12-15T21:08:36.760Z,8.05
2022-12-15T21:11:25.484Z,7.47
2022-12-15T21:14:29.959Z,7.70
2022-12-15T21:17:19.639Z,7.88
2022-12-15T21:20:14.391Z,7.43
2022-12-15T21:23:02.385Z,7.95
2022-12-15T21:25:56.755Z,8.10
2022-12-15T21:28:43.611Z,9.57
2022-12-15T21:31:36.771Z,8.25
2022-12-15T21:34:29.951Z,8.85
2022-12-15T21:37:29.750Z,8.73
2022-12-15T21:40:29.569Z,7.45
2022-12-15T21:43:16.563Z,8.10
2022-12-15T21:46:27.738Z,7.57
2022-12-15T21:49:20.672Z,8.23
2022-12-15T21:52:15.745Z,8.65
2022-12-15T21:55:02.621Z,8.18
2022-12-15T21:57:55.794Z,7.75
2022-12-15T22:00:48.832Z,7.82
2022-12-15T22:03:53.794Z,7.85
2022-12-15T22:06:45.867Z,7.53
2022-12-15T22:09:41.803Z,8.20
2022-12-15T22:12:34.801Z,9.10
2022-12-15T22:15:22.600Z,8.32
2022-12-15T22:18:20.810Z,8.63
2022-12-15T22:21:08.395Z,8.93
2022-12-15T22:24:01.800Z,8.30
2022-12-15T22:26:48.874Z,9.27
2022-12-15T22:29:41.830Z,7.90
2022-12-15T22:32:36.788Z,8.75
2022-12-15T22:35:33.127Z,8.25
2022-12-15T22:38:21.033Z,8.52
2022-12-15T22:41:24.793Z,7.72
2022-12-15T22:44:33.038Z,8.07
2022-12-15T22:47:19.911Z,8.05
2022-12-15T22:50:15.131Z,8.18
2022-12-15T22:53:02.002Z,8.02
2022-12-15T22:55:57.988Z,7.82
2022-12-15T22:58:47.226Z,14.88
2022-12-15T23:01:40.853Z,8.18
2022-12-15T23:04:34.913Z,8.85
2022-12-15T23:07:27.959Z,8.70
2022-12-15T23:10:42.867Z,8.02
2022-12-15T23:13:30.395Z,8.30
2022-12-15T23:16:27.874Z,8.25
2022-12-15T23:19:24.121Z,8.65
2022-12-15T23:22:17.811Z,8.55
2022-12-15T23:25:05.298Z,8.98
2022-12-15T23:27:58.868Z,7.85
2022-12-15T23:30:51.167Z,9.02
2022-12-15T23:33:44.918Z,8.93
2022-12-15T23:36:37.891Z,8.25
2022-12-15T23:39:24.782Z,9.05
2022-12-15T23:42:17.884Z,8.20
2022-12-15T23:45:11.952Z,8.30
2022-12-15T23:47:58.848Z,7.93
2022-12-15T23:50:51.863Z,8.73
2022-12-15T23:53:40.350Z,8.77
2022-12-15T23:56:33.856Z,7.85
2022-12-15T23:59:27.032Z,8.85
